Time;durP1;ratioP1;P1;durP2;ratioP2;P2;SDS_P1;SDS_P2;PMS_P1;PMS_P2;Temp;Humidity;BMP_temperature;BMP_pressure;BME280_temperature;BME280_humidity;BME280_pressure;Samples;Min_cycle;Max_cycle;Signal;HPM_P1;HPM_P2
2022/11/22 00:00:07;;;;;;;19.38;7.20;;;7.80;99.90;;;;;;5075137;28;20403;-74
2022/11/22 00:02:33;;;;;;;20.60;8.02;;;7.80;99.90;;;;;;5074707;28;20024;-73
2022/11/22 00:04:59;;;;;;;21.10;8.00;;;7.80;99.90;;;;;;5075630;28;20062;-74
2022/11/22 00:07:24;;;;;;;15.60;6.15;;;7.80;99.90;;;;;;5069111;28;20032;-75
2022/11/22 00:09:50;;;;;;;20.23;8.13;;;7.80;99.90;;;;;;5075241;28;20020;-75
2022/11/22 00:12:16;;;;;;;17.08;6.80;;;7.80;99.90;;;;;;5074494;28;20040;-72
2022/11/22 00:14:41;;;;;;;20.55;7.78;;;7.80;99.90;;;;;;5075065;28;20039;-73
2022/11/22 00:17:07;;;;;;;21.13;7.35;;;7.80;99.90;;;;;;5074700;28;20041;-71
2022/11/22 00:19:34;;;;;;;24.17;8.57;;;7.80;99.90;;;;;;5074824;28;20033;-73
2022/11/22 00:22:00;;;;;;;20.15;8.43;;;7.80;99.90;;;;;;5074610;28;20016;-71
2022/11/22 00:24:25;;;;;;;20.90;7.65;;;7.80;99.90;;;;;;5062269;28;20377;-72
2022/11/22 00:26:51;;;;;;;22.02;9.07;;;7.80;99.90;;;;;;5066293;28;20067;-75
2022/11/22 00:29:16;;;;;;;20.52;7.53;;;7.80;99.90;;;;;;5074525;28;20044;-72
2022/11/22 00:31:42;;;;;;;23.08;10.10;;;7.80;99.90;;;;;;5074422;28;20398;-71
2022/11/22 00:34:08;;;;;;;20.48;8.63;;;7.80;99.90;;;;;;5073647;28;20417;-72
2022/11/22 00:36:33;;;;;;;23.58;9.30;;;7.80;99.90;;;;;;5074533;28;20071;-72
2022/11/22 00:38:59;;;;;;;25.55;9.50;;;7.70;99.90;;;;;;5074429;28;20027;-73
2022/11/22 00:41:24;;;;;;;22.80;8.45;;;7.70;99.90;;;;;;5062377;28;20097;-74
2022/11/22 00:43:50;;;;;;;25.65;9.55;;;7.70;99.90;;;;;;5054936;28;20103;-73
2022/11/22 00:46:15;;;;;;;28.45;8.88;;;7.70;99.90;;;;;;5073998;28;20036;-73
2022/11/22 00:48:41;;;;;;;25.65;10.73;;;7.70;99.90;;;;;;5074279;28;20017;-74
2022/11/22 00:51:06;;;;;;;21.45;9.65;;;7.70;99.90;;;;;;5072944;28;20488;-73
2022/11/22 00:53:32;;;;;;;25.77;8.60;;;7.80;99.90;;;;;;5074454;28;20647;-74
2022/11/22 00:55:58;;;;;;;23.45;9.20;;;7.80;99.90;;;;;;5073818;28;20628;-72
2022/11/22 00:58:23;;;;;;;26.05;10.05;;;7.80;99.90;;;;;;5072371;28;20112;-71
2022/11/22 01:00:49;;;;;;;22.20;9.13;;;7.80;99.90;;;;;;5070245;28;20025;-73
2022/11/22 01:03:15;;;;;;;28.23;10.75;;;7.80;99.90;;;;;;5068611;28;20078;-74
2022/11/22 01:05:41;;;;;;;26.45;10.57;;;7.70;99.90;;;;;;5070708;28;20040;-74
2022/11/22 01:08:07;;;;;;;28.38;10.98;;;7.80;99.90;;;;;;5074102;28;20012;-72
2022/11/22 01:10:36;;;;;;;24.65;11.30;;;7.90;99.90;;;;;;5073906;28;20475;-72
2022/11/22 01:13:02;;;;;;;19.35;9.15;;;7.90;99.90;;;;;;5071844;28;20423;-72
2022/11/22 01:15:28;;;;;;;28.40;11.32;;;7.90;99.90;;;;;;5058082;28;20134;-73
2022/11/22 01:17:53;;;;;;;24.33;11.05;;;7.90;99.90;;;;;;5061711;28;20054;-72
2022/11/22 01:20:19;;;;;;;25.13;10.77;;;7.90;99.90;;;;;;5073913;28;20021;-72
2022/11/22 01:22:47;;;;;;;32.92;13.25;;;7.90;99.90;;;;;;5074222;28;20108;-73
2022/11/22 01:25:13;;;;;;;23.33;9.48;;;7.90;99.90;;;;;;5073861;28;20067;-72
2022/11/22 01:27:39;;;;;;;23.20;10.10;;;8.00;99.90;;;;;;5073379;28;20056;-72
2022/11/22 01:30:05;;;;;;;25.35;10.48;;;8.00;99.90;;;;;;5073658;28;20491;-72
2022/11/22 01:32:31;;;;;;;23.50;9.57;;;7.90;99.90;;;;;;5073479;28;20044;-72
2022/11/22 01:34:57;;;;;;;22.85;10.23;;;7.90;99.90;;;;;;5072976;28;20020;-72
2022/11/22 01:37:22;;;;;;;22.27;9.57;;;7.90;99.90;;;;;;5066278;28;20043;-74
2022/11/22 01:39:48;;;;;;;20.25;8.82;;;7.90;99.90;;;;;;5067978;28;20059;-72
2022/11/22 01:42:13;;;;;;;21.48;8.82;;;7.80;99.90;;;;;;5072663;28;20024;-72
2022/11/22 01:44:41;;;;;;;22.08;8.82;;;7.70;99.90;;;;;;5053361;28;20036;-72
2022/11/22 01:47:12;;;;;;;24.00;8.40;;;7.60;99.90;;;;;;5053622;28;20017;-73
2022/11/22 01:49:49;;;;;;;32.53;9.15;;;7.60;99.90;;;;;;5053490;28;20326;-72
2022/11/22 01:52:18;;;;;;;19.30;7.45;;;7.60;99.90;;;;;;5051992;28;20079;-72
2022/11/22 01:54:48;;;;;;;14.77;5.85;;;7.60;99.90;;;;;;5056792;28;20448;-72
2022/11/22 01:57:18;;;;;;;15.63;6.82;;;7.60;99.90;;;;;;5072109;28;20036;-73
2022/11/22 01:59:48;;;;;;;28.45;8.10;;;7.60;99.90;;;;;;5069331;28;20025;-73
2022/11/22 02:02:14;;;;;;;19.80;7.65;;;7.60;99.90;;;;;;5067473;28;20025;-73
2022/11/22 02:04:41;;;;;;;18.83;7.35;;;7.70;99.90;;;;;;5071330;28;20027;-73
2022/11/22 02:07:24;;;;;;;23.13;7.70;;;7.60;99.90;;;;;;5071799;28;20029;-72
2022/11/22 02:09:51;;;;;;;12.40;4.65;;;7.60;99.90;;;;;;5065430;28;20036;-72
2022/11/22 02:12:19;;;;;;;15.68;6.90;;;7.50;99.90;;;;;;5071169;28;20021;-72
2022/11/22 02:14:46;;;;;;;20.52;7.35;;;7.50;99.90;;;;;;5071859;28;20031;-72
2022/11/22 02:17:12;;;;;;;19.65;6.45;;;7.40;99.90;;;;;;5070261;28;20017;-72
2022/11/22 02:19:48;;;;;;;20.67;6.90;;;7.40;99.90;;;;;;5071270;28;20031;-72
2022/11/22 02:22:39;;;;;;;20.45;6.60;;;7.30;99.90;;;;;;5070549;28;20048;-72
2022/11/22 02:25:17;;;;;;;16.60;6.00;;;7.30;99.90;;;;;;5071741;28;20024;-72
2022/11/22 02:27:43;;;;;;;15.88;5.28;;;7.20;99.90;;;;;;5070112;28;20033;-72
2022/11/22 02:30:10;;;;;;;16.45;5.07;;;7.10;99.90;;;;;;5071518;28;20028;-72
2022/11/22 02:32:35;;;;;;;17.67;5.28;;;7.10;99.90;;;;;;5068940;28;20063;-72
2022/11/22 02:35:01;;;;;;;18.42;6.30;;;7.10;99.90;;;;;;5072081;28;20437;-71
2022/11/22 02:37:30;;;;;;;20.02;5.40;;;7.00;99.90;;;;;;5070224;28;20509;-73
2022/11/22 02:40:00;;;;;;;13.98;5.90;;;7.00;99.90;;;;;;5069905;28;20013;-72
2022/11/22 02:42:27;;;;;;;19.73;5.90;;;7.00;99.90;;;;;;5071690;28;20009;-74
2022/11/22 02:44:53;;;;;;;18.80;6.03;;;7.00;99.90;;;;;;5071629;28;20021;-74
2022/11/22 02:47:18;;;;;;;18.13;5.70;;;6.90;99.90;;;;;;5072002;28;20414;-74
2022/11/22 02:49:44;;;;;;;20.83;6.13;;;6.90;99.90;;;;;;5071389;28;20059;-74
2022/11/22 02:52:09;;;;;;;15.68;5.07;;;6.90;99.90;;;;;;5071327;28;20449;-71
2022/11/22 02:54:35;;;;;;;9.30;4.05;;;6.80;99.90;;;;;;5071246;28;20487;-74
2022/11/22 02:57:02;;;;;;;16.50;5.72;;;6.80;99.90;;;;;;5068594;28;20058;-71
2022/11/22 02:59:27;;;;;;;18.90;5.45;;;6.80;99.90;;;;;;5071466;28;20427;-72
2022/11/22 03:01:54;;;;;;;16.55;5.03;;;6.80;99.90;;;;;;5071444;28;20100;-73
2022/11/22 03:04:25;;;;;;;19.50;5.15;;;6.80;99.90;;;;;;5071632;28;20044;-73
2022/11/22 03:06:56;;;;;;;17.20;4.47;;;6.70;99.90;;;;;;5071686;28;20074;-72
2022/11/22 03:09:23;;;;;;;24.02;5.72;;;6.70;99.90;;;;;;5071726;28;20025;-71
2022/11/22 03:11:49;;;;;;;18.05;5.38;;;6.70;99.90;;;;;;5071254;28;20029;-71
2022/11/22 03:14:15;;;;;;;16.83;4.60;;;6.60;99.90;;;;;;5070155;28;20082;-72
2022/11/22 03:16:45;;;;;;;30.17;5.22;;;6.70;99.90;;;;;;5071005;28;20028;-73
2022/11/22 03:19:10;;;;;;;17.52;4.72;;;6.60;99.90;;;;;;5070059;28;20032;-71
2022/11/22 03:21:37;;;;;;;13.00;3.75;;;6.60;99.90;;;;;;5069294;28;20090;-73
2022/11/22 03:24:03;;;;;;;13.40;3.50;;;6.60;99.90;;;;;;5072836;28;20814;-72
2022/11/22 03:26:28;;;;;;;16.85;4.30;;;6.60;99.90;;;;;;5074400;28;20020;-72
2022/11/22 03:28:54;;;;;;;28.48;5.05;;;6.60;99.90;;;;;;5074627;28;20060;-72
2022/11/22 03:31:19;;;;;;;15.63;3.88;;;6.60;99.90;;;;;;5073310;28;20352;-73
2022/11/22 03:33:45;;;;;;;11.52;3.22;;;6.50;99.90;;;;;;5074583;28;20032;-72
2022/11/22 03:36:10;;;;;;;22.30;4.03;;;6.50;99.90;;;;;;5073998;28;20040;-72
2022/11/22 03:38:36;;;;;;;11.32;3.42;;;6.50;99.90;;;;;;5071572;28;20056;-71
2022/11/22 03:41:02;;;;;;;17.65;3.53;;;6.50;99.90;;;;;;5072192;28;20477;-73
2022/11/22 03:43:27;;;;;;;11.35;2.70;;;6.50;99.90;;;;;;5073954;28;20101;-72
2022/11/22 03:45:53;;;;;;;15.63;3.97;;;6.40;99.90;;;;;;5074409;28;20024;-72
2022/11/22 03:48:19;;;;;;;18.77;3.53;;;6.40;99.90;;;;;;5074345;28;20123;-71
2022/11/22 03:50:45;;;;;;;14.25;3.45;;;6.40;99.90;;;;;;5074721;28;20054;-70
2022/11/22 03:53:10;;;;;;;15.35;3.08;;;6.40;99.90;;;;;;5074135;28;20446;-73
2022/11/22 03:55:36;;;;;;;21.23;4.22;;;6.40;99.90;;;;;;5074186;28;20472;-72
2022/11/22 03:58:02;;;;;;;14.63;3.40;;;6.40;99.90;;;;;;5073709;28;20130;-73
2022/11/22 04:00:27;;;;;;;13.73;3.25;;;6.30;99.90;;;;;;5072577;28;20059;-72
2022/11/22 04:02:53;;;;;;;13.93;3.42;;;6.40;99.90;;;;;;5072860;28;20017;-72
2022/11/22 04:05:19;;;;;;;15.13;3.83;;;6.40;99.90;;;;;;5074488;28;20394;-72
2022/11/22 04:07:44;;;;;;;19.80;3.28;;;6.40;99.90;;;;;;5072547;28;20025;-71
2022/11/22 04:10:10;;;;;;;12.85;2.70;;;6.50;99.90;;;;;;5069086;28;20063;-71
2022/11/22 04:12:35;;;;;;;12.10;2.47;;;6.50;99.90;;;;;;5074759;28;20119;-70
2022/11/22 04:15:07;;;;;;;15.00;3.22;;;6.50;99.90;;;;;;5070024;28;20464;-70
2022/11/22 04:17:40;;;;;;;14.18;2.60;;;6.50;99.90;;;;;;5072038;28;20021;-72
2022/11/22 04:23:05;;;;;;;11.73;3.47;;;6.50;99.90;;;;;;5062624;28;20085;-71
2022/11/22 04:25:32;;;;;;;14.25;2.88;;;6.40;99.90;;;;;;5067728;28;20025;-72
2022/11/22 04:27:58;;;;;;;12.55;3.40;;;6.40;99.90;;;;;;5075051;28;20461;-72
2022/11/22 04:33:10;;;;;;;15.65;4.28;;;6.30;99.90;;;;;;5074490;28;20114;-70
2022/11/22 04:35:36;;;;;;;17.75;3.38;;;6.30;99.90;;;;;;5072963;28;20025;-71
2022/11/22 04:38:02;;;;;;;18.23;3.75;;;6.30;99.90;;;;;;5089998;28;20372;-70
2022/11/22 04:40:28;;;;;;;14.00;3.88;;;6.30;99.90;;;;;;5074538;28;20032;-72
2022/11/22 04:45:37;;;;;;;21.40;4.22;;;6.20;99.90;;;;;;5074971;28;20036;-73
2022/11/22 04:48:03;;;;;;;12.82;2.90;;;6.20;99.90;;;;;;5074260;28;20024;-71
2022/11/22 04:53:16;;;;;;;21.95;3.47;;;6.20;99.90;;;;;;5073565;28;20455;-72
2022/11/22 04:55:44;;;;;;;14.80;3.33;;;6.10;99.90;;;;;;5074447;28;20078;-71
2022/11/22 04:58:10;;;;;;;17.88;3.33;;;6.10;99.90;;;;;;5071185;28;20150;-71
2022/11/22 05:00:36;;;;;;;21.88;4.32;;;6.10;99.90;;;;;;5074009;28;20115;-72
2022/11/22 05:03:02;;;;;;;11.75;2.45;;;6.10;99.90;;;;;;5073970;28;20444;-71
2022/11/22 05:05:28;;;;;;;12.13;2.55;;;6.00;99.90;;;;;;5073796;28;20067;-70
2022/11/22 05:07:54;;;;;;;11.85;3.30;;;6.00;99.90;;;;;;5074081;28;20420;-72
2022/11/22 05:10:20;;;;;;;15.30;3.83;;;6.00;99.90;;;;;;5073666;28;20016;-73
2022/11/22 05:12:45;;;;;;;10.50;2.45;;;6.00;99.90;;;;;;5073638;28;20043;-72
2022/11/22 05:15:12;;;;;;;19.55;4.65;;;5.90;99.90;;;;;;5074272;28;20039;-73
2022/11/22 05:17:38;;;;;;;10.98;2.88;;;5.90;99.90;;;;;;5074069;28;20052;-73
2022/11/22 05:20:07;;;;;;;10.25;2.90;;;5.90;99.90;;;;;;5067117;28;20019;-73
2022/11/22 05:25:18;;;;;;;12.85;2.92;;;5.90;99.90;;;;;;5064893;28;20479;-71
2022/11/22 05:27:44;;;;;;;17.25;3.38;;;5.90;99.90;;;;;;5073302;28;20025;-71
2022/11/22 05:30:09;;;;;;;10.45;2.75;;;6.00;99.90;;;;;;5073582;28;20028;-71
2022/11/22 05:32:35;;;;;;;11.05;2.50;;;6.00;99.90;;;;;;5068194;28;20543;-73
2022/11/22 05:35:01;;;;;;;14.32;2.92;;;6.00;99.90;;;;;;5068877;28;20024;-73
2022/11/22 05:37:27;;;;;;;13.90;2.83;;;6.10;99.90;;;;;;5072183;28;20016;-72
2022/11/22 05:39:52;;;;;;;9.25;2.80;;;6.10;99.90;;;;;;5063954;28;20066;-73
2022/11/22 05:42:18;;;;;;;16.55;2.80;;;6.20;99.90;;;;;;5072561;28;20020;-72
2022/11/22 05:44:44;;;;;;;13.77;3.15;;;6.20;99.90;;;;;;5070701;28;20391;-70
2022/11/22 05:47:10;;;;;;;11.93;3.30;;;6.20;99.90;;;;;;5063278;28;20096;-70
2022/11/22 05:49:35;;;;;;;12.02;2.80;;;6.20;99.90;;;;;;5066002;28;20036;-71
2022/11/22 05:52:02;;;;;;;11.40;3.30;;;6.20;99.90;;;;;;5072431;28;20032;-72
2022/11/22 05:54:28;;;;;;;14.52;2.60;;;6.20;99.90;;;;;;5072576;28;20031;-70
2022/11/22 05:56:54;;;;;;;9.95;2.25;;;6.10;99.90;;;;;;5072578;28;20025;-72
2022/11/22 05:59:20;;;;;;;7.82;2.35;;;6.10;99.90;;;;;;5070982;28;20440;-71
2022/11/22 06:01:45;;;;;;;12.75;3.70;;;6.10;99.90;;;;;;5068352;28;20383;-72
2022/11/22 06:04:11;;;;;;;11.80;3.15;;;6.10;99.90;;;;;;5069612;28;20122;-71
2022/11/22 06:06:37;;;;;;;7.20;2.50;;;6.10;99.90;;;;;;5070955;28;20518;-71
2022/11/22 06:09:03;;;;;;;13.50;4.50;;;6.00;99.90;;;;;;5071996;28;20024;-72
2022/11/22 06:11:29;;;;;;;6.93;2.65;;;6.00;99.90;;;;;;5072604;28;20017;-71
2022/11/22 06:13:57;;;;;;;10.35;2.95;;;6.00;99.90;;;;;;5072498;28;20024;-70
2022/11/22 06:16:24;;;;;;;9.85;2.65;;;6.00;99.90;;;;;;5072214;28;20016;-70
2022/11/22 06:18:50;;;;;;;12.85;3.65;;;5.90;99.90;;;;;;5067750;28;20058;-71
2022/11/22 06:21:23;;;;;;;7.95;2.75;;;5.90;99.90;;;;;;5069938;28;20099;-70
2022/11/22 06:23:50;;;;;;;10.57;3.08;;;5.90;99.90;;;;;;5072014;28;20024;-70
2022/11/22 06:26:18;;;;;;;18.30;3.70;;;5.90;99.90;;;;;;5071721;28;20032;-71
2022/11/22 06:28:46;;;;;;;12.30;3.58;;;5.90;99.90;;;;;;5068810;28;20115;-72
2022/11/22 06:31:14;;;;;;;12.07;3.72;;;5.90;99.90;;;;;;5029107;28;1217073;-72
2022/11/22 06:33:40;;;;;;;13.23;4.18;;;5.80;99.90;;;;;;5072376;28;20032;-71
2022/11/22 06:36:18;;;;;;;11.73;3.80;;;5.80;99.90;;;;;;5068919;28;20051;-71
2022/11/22 06:38:44;;;;;;;12.52;4.55;;;5.80;99.90;;;;;;5058854;28;20020;-71
2022/11/22 06:41:15;;;;;;;15.35;4.65;;;5.90;99.90;;;;;;5073285;28;20028;-71
2022/11/22 06:43:42;;;;;;;12.60;4.03;;;6.00;99.90;;;;;;5071514;28;20023;-71
2022/11/22 06:46:10;;;;;;;10.75;3.95;;;6.00;99.90;;;;;;5070534;28;20067;-71
2022/11/22 06:48:38;;;;;;;13.10;3.53;;;6.10;99.90;;;;;;5065581;28;20067;-71
2022/11/22 06:51:23;;;;;;;16.27;5.28;;;6.10;99.90;;;;;;5070340;28;20031;-71
2022/11/22 06:53:50;;;;;;;11.10;3.97;;;6.10;99.90;;;;;;5071371;28;20469;-72
2022/11/22 06:56:21;;;;;;;9.07;4.03;;;6.20;99.90;;;;;;5072466;28;20024;-71
2022/11/22 06:58:48;;;;;;;21.67;6.05;;;6.20;99.90;;;;;;5070557;28;20115;-71
2022/11/22 07:01:17;;;;;;;12.20;4.18;;;6.20;99.90;;;;;;5073962;28;20028;-73
2022/11/22 07:03:43;;;;;;;13.48;4.65;;;6.30;99.90;;;;;;5076529;28;20035;-72
2022/11/22 07:06:10;;;;;;;21.35;6.05;;;6.30;99.90;;;;;;5075517;28;20040;-71
2022/11/22 07:08:36;;;;;;;15.68;4.93;;;6.40;99.90;;;;;;5075841;28;20474;-72
2022/11/22 07:11:10;;;;;;;12.15;4.40;;;6.40;99.90;;;;;;5075727;28;20414;-72
2022/11/22 07:13:36;;;;;;;18.08;5.82;;;6.40;99.90;;;;;;5064753;28;20040;-73
2022/11/22 07:16:04;;;;;;;12.02;5.63;;;6.40;99.90;;;;;;5076295;28;20031;-71
2022/11/22 07:18:30;;;;;;;14.98;5.40;;;6.40;99.90;;;;;;5063694;28;20025;-72
2022/11/22 07:21:05;;;;;;;12.05;5.13;;;6.40;99.90;;;;;;5067048;28;20162;-72
2022/11/22 07:23:30;;;;;;;20.42;7.70;;;6.40;99.90;;;;;;5075061;28;20090;-71
2022/11/22 07:25:56;;;;;;;19.17;7.15;;;6.40;99.90;;;;;;5075755;28;20107;-72
2022/11/22 07:28:22;;;;;;;18.48;6.50;;;6.40;99.90;;;;;;5073245;28;20150;-72
2022/11/22 07:30:47;;;;;;;18.42;6.65;;;6.40;99.90;;;;;;5075926;28;20028;-72
2022/11/22 07:33:13;;;;;;;17.27;6.60;;;6.50;99.90;;;;;;5075214;28;20072;-71
2022/11/22 07:35:39;;;;;;;16.85;6.13;;;6.50;99.90;;;;;;5075873;28;20020;-71
2022/11/22 07:38:04;;;;;;;15.85;5.75;;;6.50;99.90;;;;;;5074585;28;20027;-72
2022/11/22 07:40:30;;;;;;;14.80;6.47;;;6.50;99.90;;;;;;5074871;28;20020;-72
2022/11/22 07:42:56;;;;;;;11.60;5.10;;;6.50;99.90;;;;;;5076238;28;20088;-72
2022/11/22 07:45:21;;;;;;;10.10;5.13;;;6.50;99.90;;;;;;5075715;28;20105;-72
2022/11/22 07:47:47;;;;;;;12.82;6.07;;;6.50;99.90;;;;;;5076282;28;20347;-72
2022/11/22 07:50:13;;;;;;;16.80;5.82;;;6.50;99.90;;;;;;5092853;28;20024;-72
2022/11/22 07:52:38;;;;;;;13.95;5.57;;;6.50;99.90;;;;;;5096368;28;20027;-72
2022/11/22 07:55:05;;;;;;;10.15;4.43;;;6.50;99.90;;;;;;5080089;28;20055;-72
2022/11/22 07:57:31;;;;;;;7.63;3.97;;;6.60;99.90;;;;;;5075377;28;20021;-72
2022/11/22 07:59:56;;;;;;;10.30;4.53;;;6.60;99.90;;;;;;5091415;28;20407;-71
2022/11/22 08:02:22;;;;;;;13.02;5.70;;;6.60;99.90;;;;;;5075053;28;20024;-72
2022/11/22 08:04:48;;;;;;;17.48;6.47;;;6.70;99.90;;;;;;5075854;28;20516;-72
2022/11/22 08:07:13;;;;;;;14.50;5.90;;;6.70;99.90;;;;;;5068640;28;20021;-72
2022/11/22 08:09:39;;;;;;;13.90;6.20;;;6.80;99.90;;;;;;5055687;28;20033;-72
2022/11/22 08:12:05;;;;;;;11.48;5.53;;;6.80;99.90;;;;;;5072421;28;20070;-71
2022/11/22 08:14:30;;;;;;;9.95;4.65;;;6.90;99.90;;;;;;5070700;28;20358;-71
2022/11/22 08:16:56;;;;;;;19.65;5.88;;;6.90;99.90;;;;;;5075077;28;20039;-71
2022/11/22 08:19:21;;;;;;;11.43;4.78;;;6.90;99.90;;;;;;5075462;28;20070;-71
2022/11/22 08:21:47;;;;;;;9.50;4.22;;;6.90;99.90;;;;;;5075139;28;20500;-71
2022/11/22 08:24:14;;;;;;;13.02;5.70;;;6.90;99.90;;;;;;5074565;28;20029;-71
2022/11/22 08:26:40;;;;;;;10.00;3.95;;;6.90;99.90;;;;;;5074483;28;20459;-71
2022/11/22 08:29:08;;;;;;;15.13;4.72;;;6.90;99.90;;;;;;5062539;28;20029;-71
2022/11/22 08:31:33;;;;;;;15.70;5.47;;;6.90;99.90;;;;;;5074909;28;20048;-72
2022/11/22 08:33:59;;;;;;;15.00;5.53;;;6.90;99.90;;;;;;5074808;28;20031;-72
2022/11/22 08:36:26;;;;;;;13.93;5.68;;;7.00;99.90;;;;;;5074785;28;20024;-72
2022/11/22 08:38:52;;;;;;;16.70;5.10;;;7.00;99.90;;;;;;5074620;28;20333;-71
2022/11/22 08:41:17;;;;;;;13.50;4.65;;;7.10;99.90;;;;;;5074921;28;20024;-72
2022/11/22 08:43:43;;;;;;;9.88;4.68;;;7.10;99.90;;;;;;5073900;28;20444;-72
2022/11/22 08:46:09;;;;;;;10.82;4.22;;;7.10;99.90;;;;;;5075144;28;20517;-71
2022/11/22 08:48:37;;;;;;;14.13;4.97;;;7.10;99.90;;;;;;5074864;28;20520;-71
2022/11/22 08:51:08;;;;;;;13.85;5.45;;;7.10;99.90;;;;;;5075312;28;20024;-71
2022/11/22 08:53:41;;;;;;;14.70;5.72;;;7.20;99.90;;;;;;5074084;28;20059;-72
2022/11/22 08:56:09;;;;;;;16.40;5.00;;;7.30;99.90;;;;;;5074817;28;20024;-72
2022/11/22 08:58:35;;;;;;;13.07;4.90;;;7.30;99.90;;;;;;5074229;28;20021;-72
2022/11/22 09:01:05;;;;;;;19.30;4.47;;;7.40;99.90;;;;;;5074075;28;20415;-71
2022/11/22 09:03:32;;;;;;;13.88;4.45;;;7.50;99.90;;;;;;5074431;28;20028;-71
2022/11/22 09:06:06;;;;;;;8.90;3.85;;;7.50;99.90;;;;;;5073754;28;20052;-71
2022/11/22 09:08:33;;;;;;;13.05;4.65;;;7.50;99.90;;;;;;5074757;28;20445;-70
2022/11/22 09:11:00;;;;;;;9.55;3.95;;;7.50;99.90;;;;;;5072964;28;20020;-70
2022/11/22 09:13:26;;;;;;;10.77;4.85;;;7.50;99.90;;;;;;5074507;28;20459;-70
2022/11/22 09:15:52;;;;;;;8.57;3.08;;;7.50;99.90;;;;;;5072839;28;20031;-73
2022/11/22 09:18:17;;;;;;;12.82;4.82;;;7.50;99.90;;;;;;5072695;28;20432;-71
2022/11/22 09:20:43;;;;;;;8.07;2.78;;;7.50;99.90;;;;;;5072316;28;20020;-71
2022/11/22 09:23:09;;;;;;;5.75;3.03;;;7.50;99.90;;;;;;5073383;28;20025;-71
2022/11/22 09:25:34;;;;;;;7.78;3.20;;;7.50;99.90;;;;;;5072938;28;20024;-71
2022/11/22 09:28:03;;;;;;;7.35;3.22;;;7.40;99.90;;;;;;5074367;28;20449;-71
2022/11/22 09:30:29;;;;;;;9.80;3.25;;;7.40;99.90;;;;;;5073755;28;20069;-71
2022/11/22 09:32:55;;;;;;;6.68;3.55;;;7.40;99.90;;;;;;5073554;28;20473;-71
2022/11/22 09:35:20;;;;;;;7.95;4.25;;;7.40;99.90;;;;;;5073874;28;20020;-71
2022/11/22 09:37:46;;;;;;;7.47;3.33;;;7.30;99.90;;;;;;5072536;28;20024;-71
2022/11/22 09:40:14;;;;;;;11.35;4.70;;;7.30;99.90;;;;;;5073217;28;20027;-71
2022/11/22 09:42:48;;;;;;;5.10;3.30;;;7.30;99.90;;;;;;5073840;28;20111;-71
2022/11/22 09:45:35;;;;;;;12.93;4.32;;;7.30;99.90;;;;;;5073773;28;20027;-71
2022/11/22 09:48:26;;;;;;;7.03;3.38;;;7.30;99.90;;;;;;5074064;28;20062;-71
2022/11/22 09:51:08;;;;;;;10.85;4.30;;;7.40;99.90;;;;;;5073791;28;20020;-70
2022/11/22 09:53:33;;;;;;;8.87;4.10;;;7.40;99.90;;;;;;5073580;28;20411;-72
2022/11/22 09:56:03;;;;;;;9.68;4.30;;;7.40;99.90;;;;;;5073561;28;20054;-71
2022/11/22 09:58:46;;;;;;;9.38;4.22;;;7.40;99.90;;;;;;5073457;28;20020;-71
2022/11/22 10:01:46;;;;;;;12.20;5.03;;;7.50;99.90;;;;;;5072970;28;20024;-71
2022/11/22 10:04:16;;;;;;;13.93;6.82;;;7.50;99.90;;;;;;5036033;28;20040;-70
2022/11/22 10:06:47;;;;;;;9.95;4.35;;;7.50;99.90;;;;;;5072957;28;20460;-71
2022/11/22 10:09:29;;;;;;;5.78;3.70;;;7.50;99.90;;;;;;5073380;28;20027;-72
2022/11/22 10:12:30;;;;;;;8.25;4.22;;;7.50;99.90;;;;;;5073189;28;20033;-71
2022/11/22 10:15:13;;;;;;;7.50;3.55;;;7.50;99.90;;;;;;5070653;28;20017;-71
2022/11/22 10:18:00;;;;;;;8.18;4.68;;;7.50;99.90;;;;;;5073527;28;20016;-72
2022/11/22 10:20:27;;;;;;;9.65;3.90;;;7.60;99.90;;;;;;5061382;28;20100;-72
2022/11/22 10:22:54;;;;;;;12.15;4.47;;;7.60;99.90;;;;;;5073471;28;20028;-71
2022/11/22 10:25:33;;;;;;;12.25;4.25;;;7.70;99.90;;;;;;5073041;28;20026;-71
2022/11/22 10:28:17;;;;;;;9.70;4.30;;;7.80;99.90;;;;;;5073349;28;20021;-71
2022/11/22 10:30:54;;;;;;;8.05;3.75;;;7.90;99.90;;;;;;5062954;28;20035;-72
2022/11/22 10:33:26;;;;;;;8.70;3.38;;;8.00;99.90;;;;;;5070482;28;20049;-71
2022/11/22 10:36:19;;;;;;;8.27;3.17;;;8.00;99.90;;;;;;5071898;28;20021;-72
2022/11/22 10:39:01;;;;;;;6.18;3.10;;;8.00;99.90;;;;;;5073032;28;20016;-71
2022/11/22 10:42:07;;;;;;;10.52;3.75;;;8.10;99.90;;;;;;5072330;28;20021;-71
2022/11/22 10:44:57;;;;;;;8.68;2.72;;;8.20;99.90;;;;;;5071529;28;20040;-71
2022/11/22 10:47:31;;;;;;;8.15;2.88;;;8.20;99.90;;;;;;5071037;28;20031;-71
2022/11/22 10:50:12;;;;;;;8.30;3.42;;;8.30;99.90;;;;;;5073195;28;20086;-71
2022/11/22 10:52:55;;;;;;;12.13;3.17;;;8.20;99.90;;;;;;5071144;28;20040;-72
2022/11/22 10:55:21;;;;;;;10.45;3.40;;;8.20;99.90;;;;;;5072398;28;20021;-71
2022/11/22 10:58:17;;;;;;;7.13;2.72;;;8.20;99.90;;;;;;5072975;28;20031;-71
2022/11/22 11:00:49;;;;;;;5.72;2.83;;;8.20;99.90;;;;;;5059367;28;20013;-71
2022/11/22 11:03:37;;;;;;;9.35;4.00;;;8.20;99.90;;;;;;5072081;28;20028;-71
2022/11/22 11:06:24;;;;;;;3.30;2.28;;;8.10;99.90;;;;;;5072186;28;20465;-71
2022/11/22 11:08:56;;;;;;;6.93;2.78;;;8.10;99.90;;;;;;5072219;28;20380;-70
2022/11/22 11:11:25;;;;;;;11.30;3.80;;;8.10;99.90;;;;;;5071382;28;20150;-71
2022/11/22 11:13:55;;;;;;;6.97;2.63;;;8.20;99.90;;;;;;5072778;28;20032;-71
2022/11/22 11:16:25;;;;;;;9.70;3.60;;;8.20;99.90;;;;;;5079879;28;20044;-71
2022/11/22 11:19:10;;;;;;;8.40;3.38;;;8.10;99.90;;;;;;5069741;28;20032;-71
2022/11/22 11:21:36;;;;;;;4.55;2.53;;;8.20;99.90;;;;;;5061956;28;20028;-70
2022/11/22 11:24:02;;;;;;;9.88;3.15;;;8.20;99.90;;;;;;5072052;28;20021;-71
2022/11/22 11:26:31;;;;;;;7.18;3.03;;;8.20;99.90;;;;;;5071545;28;20112;-71
2022/11/22 11:29:18;;;;;;;13.98;3.70;;;8.30;99.90;;;;;;5071642;28;20099;-71
2022/11/22 11:31:45;;;;;;;9.07;3.03;;;8.40;99.90;;;;;;5070572;28;20041;-70
2022/11/22 11:34:28;;;;;;;4.68;2.10;;;8.40;99.90;;;;;;5059541;28;20441;-70
2022/11/22 11:36:55;;;;;;;;;;;8.40;99.90;;;;;;5072255;28;20036;-72
2022/11/22 11:39:28;;;;;;;11.77;3.25;;;8.30;99.90;;;;;;5066357;28;20038;-71
2022/11/22 11:41:54;;;;;;;7.05;2.67;;;8.30;99.90;;;;;;5072404;28;20028;-71
2022/11/22 11:44:35;;;;;;;4.85;2.42;;;8.30;99.90;;;;;;5064101;28;20373;-71
2022/11/22 11:47:01;;;;;;;11.02;3.13;;;8.30;99.90;;;;;;5055696;28;20032;-70
2022/11/22 11:49:29;;;;;;;7.07;2.17;;;8.30;99.90;;;;;;5056206;28;20108;-70
2022/11/22 11:51:57;;;;;;;4.38;2.20;;;8.30;99.90;;;;;;5066946;28;20030;-71
2022/11/22 11:54:28;;;;;;;4.32;2.13;;;8.30;99.90;;;;;;5074157;28;20068;-70
2022/11/22 11:56:57;;;;;;;7.43;3.17;;;8.40;99.90;;;;;;5076029;28;20081;-71
2022/11/22 11:59:29;;;;;;;6.47;2.42;;;8.30;99.90;;;;;;5076130;28;20021;-70
2022/11/22 12:02:21;;;;;;;5.40;2.25;;;8.40;99.90;;;;;;5062327;28;20024;-72
2022/11/22 12:05:00;;;;;;;6.10;2.08;;;8.50;99.90;;;;;;5074640;28;20043;-70
2022/11/22 12:07:37;;;;;;;10.55;2.60;;;8.60;99.90;;;;;;5075976;28;20029;-70
2022/11/22 12:10:41;;;;;;;9.52;2.75;;;8.70;99.90;;;;;;5073788;28;20048;-71
2022/11/22 12:16:29;;;;;;;7.88;2.70;;;9.00;99.90;;;;;;5072818;28;20082;-71
2022/11/22 12:19:13;;;;;;;7.22;2.67;;;9.00;99.90;;;;;;5072338;28;20008;-69
2022/11/22 12:22:03;;;;;;;10.13;2.67;;;8.90;99.90;;;;;;5063206;28;20075;-71
2022/11/22 12:24:42;;;;;;;7.30;2.33;;;8.80;99.90;;;;;;5056087;28;20358;-71
2022/11/22 12:27:10;;;;;;;4.60;2.55;;;8.80;99.90;;;;;;5080715;28;20372;-70
2022/11/22 12:29:39;;;;;;;6.47;2.13;;;8.70;99.90;;;;;;5061801;28;20036;-71
2022/11/22 12:32:18;;;;;;;3.60;1.92;;;8.70;99.90;;;;;;5075152;28;20124;-70
2022/11/22 12:35:14;;;;;;;9.38;3.55;;;8.70;99.90;;;;;;5075469;28;20479;-70
2022/11/22 12:37:52;;;;;;;9.73;2.95;;;8.70;99.90;;;;;;5075679;28;20025;-71
2022/11/22 12:40:25;;;;;;;11.70;4.88;;;8.70;99.90;;;;;;5062894;28;20063;-71
2022/11/22 12:42:58;;;;;;;10.73;3.58;;;8.60;99.90;;;;;;5064024;28;20070;-71
2022/11/22 12:45:30;;;;;;;10.90;3.78;;;8.60;99.90;;;;;;5075743;28;20024;-70
2022/11/22 12:47:59;;;;;;;10.07;3.28;;;8.60;99.90;;;;;;5074028;28;20036;-70
2022/11/22 12:50:37;;;;;;;8.00;3.53;;;8.50;99.90;;;;;;5066225;28;20037;-71
2022/11/22 12:53:06;;;;;;;7.85;3.10;;;8.60;99.90;;;;;;5086913;28;20357;-71
2022/11/22 12:56:07;;;;;;;7.90;3.40;;;8.70;99.90;;;;;;5068268;28;20107;-69
2022/11/22 12:58:44;;;;;;;6.15;2.80;;;8.70;99.90;;;;;;5065989;28;20427;-70
2022/11/22 13:01:26;;;;;;;7.03;3.30;;;8.70;99.90;;;;;;5075462;28;20028;-70
2022/11/22 13:03:57;;;;;;;10.80;3.25;;;8.70;99.90;;;;;;5074421;28;20070;-70
2022/11/22 13:06:26;;;;;;;6.28;2.83;;;8.70;99.90;;;;;;5074350;28;20043;-70
2022/11/22 13:09:10;;;;;;;11.70;3.00;;;8.70;99.90;;;;;;5072449;28;20089;-70
2022/11/22 13:11:47;;;;;;;5.40;2.53;;;8.70;99.90;;;;;;5072675;28;20487;-71
2022/11/22 13:14:25;;;;;;;10.38;3.13;;;8.70;99.90;;;;;;5067750;28;20050;-71
2022/11/22 13:16:52;;;;;;;6.47;2.92;;;8.70;99.90;;;;;;5073139;28;20029;-69
2022/11/22 13:19:23;;;;;;;9.48;3.20;;;8.80;99.90;;;;;;5074008;28;20046;-69